x

Virginia Beach 64 Nm East Of Virginia Beach, Va (44014) Wave Buoy

10:50pm - Fri 19th Dec 2014 All times are EST. -5 hours from GMT.

  • Sig Wave height 3.9ft
  • Swell Direction
  • Peak Period 5s
  • Average Period 4s
  • Wind
    16mph, 20mph gusts
  • Sea Temp 54°f
  • Air Temp 43°f
  • Sea Pressure 1022.7mb
  • Virginia Beach 64 Nm East Of Virginia Beach, Va
  • Virginia Beach 64 Nm East Of Virginia Beach, Va

More Historic Weather Station data

Upgrade to MSW Pro to gain access to the past 30 days of data for over 8000 Wavebouys and Weather Stations around the globe.

Join Pro

Comparision Forecast

View Surf forecast
   
Fri 12/19 10:50pm 4ft 5s 4s 16 20 mph 1022.7mb 54f 43f
9:50pm 3.5ft 5s 4s 18 22 mph 1022.1mb 54f 43f
8:50pm 4.5ft 5s 5s 18 25 mph 1022mb 54f 43f
7:50pm 4ft 5s 4s 18 25 mph 1021.9mb 55f 42f
6:50pm 4ft 5s 4s 18 22 mph 1021.4mb 55f 42f
5:50pm 4.5ft 6s 4s 20 25 mph 1020.6mb 55f 42f
4:50pm 3.5ft 5s 4s 20 27 mph 1020.5mb 55f 42f
3:50pm 4ft 5s 4s 18 22 mph 1019.6mb 55f 42f
2:50pm 3.5ft 5s 4s 18 22 mph 1018.8mb 55f 42f
1:50pm 3.5ft 5s 4s 18 22 mph 1018.7mb 55f 42f
12:50pm 3.5ft 5s 4s 18 22 mph 1019.2mb 55f 42f
11:50am 3.5ft 5s 4s 18 25 mph 1019.6mb 55f 42f
10:50am 3.5ft 5s 4s 16 20 mph 1020.4mb 55f 43f
9:50am 3.5ft 4s 4s 18 22 mph 1020.2mb 55f 43f
8:50am 3ft 5s 4s 18 22 mph 1019.6mb 55f 43f
7:50am 2.5ft 5s 4s 16 20 mph 1019mb 55f 44f
6:50am 2.5ft 5s 4s 13 18 mph 1018.4mb 55f 44f
5:50am 2.5ft 5s 4s 13 18 mph 1018mb 55f 44f
4:50am 2.5ft 5s 4s 11 16 mph 1017.7mb 55f 44f
3:50am 2.5ft 5s 4s 13 16 mph 1017.9mb 55f 44f
2:50am 2.5ft 5s 4s 11 16 mph 1018.5mb 55f 44f
1:50am 2.5ft 5s 4s 11 13 mph 1018.2mb 55f 44f
12:50am 2.5ft 5s 4s 9 13 mph 1018.1mb 55f 44f
Thu 12/18 11:50pm 3ft 5s 4s 11 13 mph 1018.5mb 55f 44f
10:50pm 3.5ft 5s 4s 11 16 mph 1018.6mb 55f 44f
9:50pm 3.5ft 5s 4s 13 18 mph 1018.5mb 56f 44f
8:50pm 3.5ft 5s 4s 13 20 mph 1018.3mb 55f 44f
7:50pm 3.5ft 5s 5s 16 20 mph 1018.6mb 55f 44f
6:50pm 3.5ft 6s 5s 16 20 mph 1018.4mb 55f 44f
5:50pm 4ft 6s 5s 16 20 mph 1018.1mb 55f 44f
4:50pm 4.5ft 6s 5s 16 20 mph 1018.1mb 55f 43f
3:50pm 4.5ft 6s 5s 13 18 mph 1018.1mb 55f 43f
2:50pm 4.5ft 7s 5s 18 22 mph 1018.1mb 55f 43f
1:50pm 4.5ft 7s 5s 16 22 mph 1018mb 55f 43f
12:50pm 5ft 7s 5s 16 20 mph 1018.4mb 55f 42f
11:50am 6ft 7s 5s 16 20 mph 1019.6mb 55f 43f
10:50am 6ft 6s 5s 20 25 mph 1019.8mb 55f 43f
9:50am 6ft 6s 5s 22 29 mph 1020.3mb 54f 44f
8:50am 6ft 6s 5s 20 25 mph 1019.8mb 54f 44f
7:50am 6ft 6s 5s 25 29 mph 1019.2mb 54f 44f
6:50am 6.5ft 6s 5s 25 29 mph 1018.6mb 54f 44f
5:50am 5ft 6s 5s 25 29 mph 1017.8mb 54f 45f
4:50am 4.5ft 5s 4s 22 25 mph 1016.9mb 54f 46f
3:50am 3ft 3s 4s 22 29 mph 1016.7mb 54f 47f
2:50am 2.5ft 8s 4s 22 25 mph 1016.2mb 54f 50f
1:50am 2.5ft 8s 4s 16 18 mph 1015.6mb 54f 52f
12:50am 2.5ft 8s 4s 16 20 mph 1015.1mb 54f 54f
Wed 12/17 11:50pm 2.5ft 8s 4s 13 16 mph 1015.3mb 54f 54f
10:50pm 2.5ft 8s 5s 13 16 mph 1015.8mb 55f 54f
9:50pm 2.5ft 8s 5s 13 16 mph 1016mb 55f 54f
8:50pm 2.5ft 8s 5s 9 11 mph 1015.9mb 55f 54f
7:50pm 2.5ft 8s 5s 9 11 mph 1016.2mb 55f 54f
6:50pm 2.5ft 8s 5s 9 11 mph 1016.4mb 55f 53f
5:50pm 3ft 8s 5s 11 13 mph 1015.6mb 55f 53f
4:50pm 3ft 6s 5s 7 9 mph 1014.9mb 55f 52f
3:50pm 3ft 8s 5s 9
mph
1014.8mb 55f 52f
2:50pm 3ft 8s 5s 11
mph
1014.6mb 55f 52f
1:50pm 3.5ft 6s 5s 11 13 mph 1014.9mb 55f 51f
12:50pm 3.5ft 7s 5s 11 13 mph 1015.1mb 55f 50f
11:50am 4ft 8s 5s 11 16 mph 1015.8mb 55f 50f
10:50am 4.5ft 7s 5s 11 16 mph 1016.7mb 55f 50f
9:50am 4ft 7s 5s 13 16 mph 1016.9mb 55f 51f
8:50am 4.5ft 7s 5s 13 16 mph 1016.4mb 55f 51f
7:50am 4ft 7s 5s 16 18 mph 1015.4mb 55f 50f
6:50am 4ft 7s 5s 16 18 mph 1014.5mb 55f 50f
5:50am 4.5ft 4s 4s 18 20 mph 1013.5mb 55f 50f
4:50am 4ft 7s 4s 20 25 mph 1012.7mb 55f 51f
3:50am 4ft 4s 4s 20 25 mph 1011.9mb 55f 51f
2:50am 4.5ft 4s 4s 20 22 mph 1011.8mb 55f 52f
1:50am 3.5ft 6s 4s 22 27 mph 1011.2mb 55f 52f
12:50am 3ft 6s 5s 18 22 mph 1010.7mb 55f 54f
Tue 12/16 11:50pm 3ft 5s 5s 13 16 mph 1011.2mb 55f 55f
10:50pm 3.5ft 5s 5s 11 13 mph 1011.5mb 55f 56f
9:50pm 3.5ft 4s 5s 11 13 mph 1011.7mb 55f 57f
8:50pm 3ft 4s 4s 13 16 mph 1012.4mb 55f 56f
7:50pm 3ft 4s 4s 18 22 mph 1013.3mb 55f 55f
6:50pm 3.5ft 4s 4s 18 20 mph 1014.7mb 55f 54f
5:50pm 2.5ft 11s 4s 29 38 mph 1014mb 55f 58f
4:50pm 2.5ft 9s 4s 11 16 mph 1013mb 55f 57f
3:50pm 2ft 10s 5s 18 20 mph 1012.9mb 56f 59f
2:50pm 1.6ft 9s 5s 13 18 mph 1013.1mb 56f 59f
1:50pm 1.6ft 11s 6s 11
mph
1014mb 56f 59f
12:50pm 2ft 10s 8s 11
mph
1014.8mb 56f 58f
11:50am 2ft 11s 7s 7 9 mph 1016.4mb 56f 57f
10:50am 1.6ft 11s 7s 9
mph
1017.3mb 55f 58f
9:50am 2ft 11s 7s 7
mph
1018.1mb 55f 56f
8:50am 2ft 11s 7s 7
mph
1018.3mb 55f 56f
7:50am 2ft 10s 7s 7 9 mph 1018.4mb 55f 55f
6:50am 1.6ft 9s 6s 9 11 mph 1018.2mb 55f 55f
5:50am 2ft 11s 7s 7 9 mph 1018.4mb 55f 53f
4:50am 2ft 11s 7s 7 9 mph 1018.1mb 55f 53f